sensor_id;sensor_type;location;lat;lon;timestamp;temperature;humidity
17442;DHT22;8838;50.144;8.176;2023-05-16T00:02:01;11.90;99.90
17442;DHT22;8838;50.144;8.176;2023-05-16T00:04:30;11.90;99.90
17442;DHT22;8838;50.144;8.176;2023-05-16T00:06:59;11.90;99.90
17442;DHT22;8838;50.144;8.176;2023-05-16T00:09:26;11.90;99.90
17442;DHT22;8838;50.144;8.176;2023-05-16T00:11:53;11.90;99.90
17442;DHT22;8838;50.144;8.176;2023-05-16T00:14:19;11.80;99.90
17442;DHT22;8838;50.144;8.176;2023-05-16T00:16:46;11.80;99.90
17442;DHT22;8838;50.144;8.176;2023-05-16T00:19:13;11.80;99.90
17442;DHT22;8838;50.144;8.176;2023-05-16T00:21:40;11.80;99.90
17442;DHT22;8838;50.144;8.176;2023-05-16T00:24:10;11.80;99.90
17442;DHT22;8838;50.144;8.176;2023-05-16T00:26:37;11.90;99.90
17442;DHT22;8838;50.144;8.176;2023-05-16T00:29:05;11.80;99.90
17442;DHT22;8838;50.144;8.176;2023-05-16T00:31:32;11.80;99.90
17442;DHT22;8838;50.144;8.176;2023-05-16T00:33:59;11.70;99.90
17442;DHT22;8838;50.144;8.176;2023-05-16T00:36:26;11.80;99.90
17442;DHT22;8838;50.144;8.176;2023-05-16T00:38:53;11.70;99.90
17442;DHT22;8838;50.144;8.176;2023-05-16T00:41:22;11.70;99.90
17442;DHT22;8838;50.144;8.176;2023-05-16T00:43:49;11.70;99.90
17442;DHT22;8838;50.144;8.176;2023-05-16T00:46:16;11.70;99.90
17442;DHT22;8838;50.144;8.176;2023-05-16T00:48:43;11.80;99.90
17442;DHT22;8838;50.144;8.176;2023-05-16T00:51:10;11.80;99.90
17442;DHT22;8838;50.144;8.176;2023-05-16T00:53:37;11.80;99.90
17442;DHT22;8838;50.144;8.176;2023-05-16T00:56:04;11.80;99.90
17442;DHT22;8838;50.144;8.176;2023-05-16T00:58:33;11.80;99.90
17442;DHT22;8838;50.144;8.176;2023-05-16T01:01:01;11.90;99.90
17442;DHT22;8838;50.144;8.176;2023-05-16T01:03:28;11.90;99.90
17442;DHT22;8838;50.144;8.176;2023-05-16T01:05:56;11.90;99.90
17442;DHT22;8838;50.144;8.176;2023-05-16T01:08:23;11.90;99.90
17442;DHT22;8838;50.144;8.176;2023-05-16T01:10:59;11.90;99.90
17442;DHT22;8838;50.144;8.176;2023-05-16T01:13:35;11.90;99.90
17442;DHT22;8838;50.144;8.176;2023-05-16T01:16:09;11.80;99.90
17442;DHT22;8838;50.144;8.176;2023-05-16T01:18:41;11.80;99.90
17442;DHT22;8838;50.144;8.176;2023-05-16T01:21:17;11.80;99.90
17442;DHT22;8838;50.144;8.176;2023-05-16T01:23:56;11.80;99.90
17442;DHT22;8838;50.144;8.176;2023-05-16T01:26:27;11.80;99.90
17442;DHT22;8838;50.144;8.176;2023-05-16T01:28:55;11.80;99.90
17442;DHT22;8838;50.144;8.176;2023-05-16T01:31:22;11.80;99.90
17442;DHT22;8838;50.144;8.176;2023-05-16T01:33:49;11.80;99.90
17442;DHT22;8838;50.144;8.176;2023-05-16T01:36:24;11.70;99.90
17442;DHT22;8838;50.144;8.176;2023-05-16T01:39:04;11.80;99.90
17442;DHT22;8838;50.144;8.176;2023-05-16T01:41:50;11.70;99.90
17442;DHT22;8838;50.144;8.176;2023-05-16T01:44:24;11.70;99.90
17442;DHT22;8838;50.144;8.176;2023-05-16T01:46:55;11.80;99.90
17442;DHT22;8838;50.144;8.176;2023-05-16T01:49:38;11.70;99.90
17442;DHT22;8838;50.144;8.176;2023-05-16T01:52:08;11.70;99.90
17442;DHT22;8838;50.144;8.176;2023-05-16T01:54:38;11.70;99.90
17442;DHT22;8838;50.144;8.176;2023-05-16T01:57:15;11.70;99.90
17442;DHT22;8838;50.144;8.176;2023-05-16T01:59:43;11.60;99.90
17442;DHT22;8838;50.144;8.176;2023-05-16T02:02:11;11.60;99.90
17442;DHT22;8838;50.144;8.176;2023-05-16T02:04:41;11.50;99.90
17442;DHT22;8838;50.144;8.176;2023-05-16T02:07:08;11.50;99.90
17442;DHT22;8838;50.144;8.176;2023-05-16T02:09:35;11.50;99.90
17442;DHT22;8838;50.144;8.176;2023-05-16T02:12:02;11.60;99.90
17442;DHT22;8838;50.144;8.176;2023-05-16T02:14:42;11.50;99.90
17442;DHT22;8838;50.144;8.176;2023-05-16T02:17:09;11.50;99.90
17442;DHT22;8838;50.144;8.176;2023-05-16T02:19:36;11.50;99.90
17442;DHT22;8838;50.144;8.176;2023-05-16T02:22:03;11.50;99.90
17442;DHT22;8838;50.144;8.176;2023-05-16T02:24:29;11.40;99.90
17442;DHT22;8838;50.144;8.176;2023-05-16T02:26:56;11.30;99.90
17442;DHT22;8838;50.144;8.176;2023-05-16T02:29:23;11.30;99.90
17442;DHT22;8838;50.144;8.176;2023-05-16T02:31:51;11.40;99.90
17442;DHT22;8838;50.144;8.176;2023-05-16T02:34:18;11.30;99.90
17442;DHT22;8838;50.144;8.176;2023-05-16T02:36:45;11.30;99.90
17442;DHT22;8838;50.144;8.176;2023-05-16T02:39:12;11.30;99.90
17442;DHT22;8838;50.144;8.176;2023-05-16T02:41:41;11.30;99.90
17442;DHT22;8838;50.144;8.176;2023-05-16T02:44:07;11.20;99.90
17442;DHT22;8838;50.144;8.176;2023-05-16T02:46:35;11.10;99.90
17442;DHT22;8838;50.144;8.176;2023-05-16T02:49:04;11.10;99.90
17442;DHT22;8838;50.144;8.176;2023-05-16T02:51:30;11.10;99.90
17442;DHT22;8838;50.144;8.176;2023-05-16T02:53:57;11.00;99.90
17442;DHT22;8838;50.144;8.176;2023-05-16T02:56:25;11.00;99.90
17442;DHT22;8838;50.144;8.176;2023-05-16T02:58:53;11.10;99.90
17442;DHT22;8838;50.144;8.176;2023-05-16T03:01:20;11.10;99.90
17442;DHT22;8838;50.144;8.176;2023-05-16T03:03:47;11.20;99.90
17442;DHT22;8838;50.144;8.176;2023-05-16T03:06:15;11.10;99.90
17442;DHT22;8838;50.144;8.176;2023-05-16T03:08:42;11.10;99.90
17442;DHT22;8838;50.144;8.176;2023-05-16T03:11:09;11.20;99.90
17442;DHT22;8838;50.144;8.176;2023-05-16T03:13:36;11.20;99.90
17442;DHT22;8838;50.144;8.176;2023-05-16T03:16:04;11.10;99.90
17442;DHT22;8838;50.144;8.176;2023-05-16T03:18:31;11.10;99.90
17442;DHT22;8838;50.144;8.176;2023-05-16T03:20:58;11.00;99.90
17442;DHT22;8838;50.144;8.176;2023-05-16T03:23:27;10.90;99.90
17442;DHT22;8838;50.144;8.176;2023-05-16T03:25:54;10.90;99.90
17442;DHT22;8838;50.144;8.176;2023-05-16T03:28:21;10.90;99.90
17442;DHT22;8838;50.144;8.176;2023-05-16T03:30:47;10.80;99.90
17442;DHT22;8838;50.144;8.176;2023-05-16T03:33:14;10.90;99.90
17442;DHT22;8838;50.144;8.176;2023-05-16T03:35:42;10.90;99.90
17442;DHT22;8838;50.144;8.176;2023-05-16T03:38:09;10.90;99.90
17442;DHT22;8838;50.144;8.176;2023-05-16T03:40:38;10.90;99.90
17442;DHT22;8838;50.144;8.176;2023-05-16T03:43:05;10.80;99.90
17442;DHT22;8838;50.144;8.176;2023-05-16T03:45:32;10.80;99.90
17442;DHT22;8838;50.144;8.176;2023-05-16T03:47:59;10.70;99.90
17442;DHT22;8838;50.144;8.176;2023-05-16T03:50:25;10.70;99.90
17442;DHT22;8838;50.144;8.176;2023-05-16T03:52:53;10.80;99.90
17442;DHT22;8838;50.144;8.176;2023-05-16T03:55:20;10.80;99.90
17442;DHT22;8838;50.144;8.176;2023-05-16T03:57:48;10.80;99.90
17442;DHT22;8838;50.144;8.176;2023-05-16T04:00:17;10.80;99.90
17442;DHT22;8838;50.144;8.176;2023-05-16T04:02:43;10.90;99.90
17442;DHT22;8838;50.144;8.176;2023-05-16T04:05:11;10.80;99.90
17442;DHT22;8838;50.144;8.176;2023-05-16T04:07:38;10.80;99.90
17442;DHT22;8838;50.144;8.176;2023-05-16T04:10:06;10.80;99.90
17442;DHT22;8838;50.144;8.176;2023-05-16T04:12:33;10.80;99.90
17442;DHT22;8838;50.144;8.176;2023-05-16T04:15:01;10.80;99.90
17442;DHT22;8838;50.144;8.176;2023-05-16T04:17:32;10.80;99.90
17442;DHT22;8838;50.144;8.176;2023-05-16T04:19:58;10.70;99.90
17442;DHT22;8838;50.144;8.176;2023-05-16T04:22:25;10.60;99.90
17442;DHT22;8838;50.144;8.176;2023-05-16T04:24:52;10.70;99.90
17442;DHT22;8838;50.144;8.176;2023-05-16T04:27:19;10.70;99.90
17442;DHT22;8838;50.144;8.176;2023-05-16T04:29:46;10.70;99.90
17442;DHT22;8838;50.144;8.176;2023-05-16T04:32:14;10.70;99.90
17442;DHT22;8838;50.144;8.176;2023-05-16T04:34:42;10.70;99.90
17442;DHT22;8838;50.144;8.176;2023-05-16T04:37:13;10.60;99.90
17442;DHT22;8838;50.144;8.176;2023-05-16T04:39:40;10.60;99.90
17442;DHT22;8838;50.144;8.176;2023-05-16T04:42:07;10.60;99.90
17442;DHT22;8838;50.144;8.176;2023-05-16T04:44:34;10.60;99.90
17442;DHT22;8838;50.144;8.176;2023-05-16T04:47:01;10.60;99.90
17442;DHT22;8838;50.144;8.176;2023-05-16T04:49:30;10.60;99.90
17442;DHT22;8838;50.144;8.176;2023-05-16T04:52:00;10.50;99.90
17442;DHT22;8838;50.144;8.176;2023-05-16T04:54:27;10.60;99.90
17442;DHT22;8838;50.144;8.176;2023-05-16T04:56:54;10.50;99.90
17442;DHT22;8838;50.144;8.176;2023-05-16T04:59:21;10.50;99.90
17442;DHT22;8838;50.144;8.176;2023-05-16T05:01:48;10.40;99.90
17442;DHT22;8838;50.144;8.176;2023-05-16T05:04:15;10.40;99.90
17442;DHT22;8838;50.144;8.176;2023-05-16T05:06:44;10.40;99.90
17442;DHT22;8838;50.144;8.176;2023-05-16T05:09:10;10.40;99.90
17442;DHT22;8838;50.144;8.176;2023-05-16T05:11:38;10.50;99.90
17442;DHT22;8838;50.144;8.176;2023-05-16T05:14:05;10.50;99.90
17442;DHT22;8838;50.144;8.176;2023-05-16T05:16:34;10.50;99.90
17442;DHT22;8838;50.144;8.176;2023-05-16T05:19:02;10.50;99.90
17442;DHT22;8838;50.144;8.176;2023-05-16T05:21:31;10.50;99.90
17442;DHT22;8838;50.144;8.176;2023-05-16T05:23:59;10.50;99.90
17442;DHT22;8838;50.144;8.176;2023-05-16T05:26:27;10.50;99.90
17442;DHT22;8838;50.144;8.176;2023-05-16T05:28:53;10.50;99.90
17442;DHT22;8838;50.144;8.176;2023-05-16T05:31:20;10.50;99.90
17442;DHT22;8838;50.144;8.176;2023-05-16T05:33:47;10.40;99.90
17442;DHT22;8838;50.144;8.176;2023-05-16T05:36:15;10.40;99.90
17442;DHT22;8838;50.144;8.176;2023-05-16T05:38:42;10.30;99.90
17442;DHT22;8838;50.144;8.176;2023-05-16T05:41:10;10.30;99.90
17442;DHT22;8838;50.144;8.176;2023-05-16T05:43:37;10.30;99.90
17442;DHT22;8838;50.144;8.176;2023-05-16T05:46:05;10.30;99.90
17442;DHT22;8838;50.144;8.176;2023-05-16T05:48:32;10.20;99.90
17442;DHT22;8838;50.144;8.176;2023-05-16T05:50:59;10.30;99.90
17442;DHT22;8838;50.144;8.176;2023-05-16T05:53:26;10.20;99.90
17442;DHT22;8838;50.144;8.176;2023-05-16T05:55:53;10.20;99.90
17442;DHT22;8838;50.144;8.176;2023-05-16T05:58:21;10.20;99.90
17442;DHT22;8838;50.144;8.176;2023-05-16T06:00:48;10.20;99.90
17442;DHT22;8838;50.144;8.176;2023-05-16T06:03:15;10.10;99.90
17442;DHT22;8838;50.144;8.176;2023-05-16T06:05:41;10.10;99.90
17442;DHT22;8838;50.144;8.176;2023-05-16T06:08:08;10.00;99.90
17442;DHT22;8838;50.144;8.176;2023-05-16T06:10:35;10.00;99.90
17442;DHT22;8838;50.144;8.176;2023-05-16T06:13:02;10.00;99.90
17442;DHT22;8838;50.144;8.176;2023-05-16T06:15:30;10.00;99.90
17442;DHT22;8838;50.144;8.176;2023-05-16T06:17:57;10.00;99.90
17442;DHT22;8838;50.144;8.176;2023-05-16T06:20:24;9.90;99.90
17442;DHT22;8838;50.144;8.176;2023-05-16T06:22:51;9.90;99.90
17442;DHT22;8838;50.144;8.176;2023-05-16T06:25:18;9.80;99.90
17442;DHT22;8838;50.144;8.176;2023-05-16T06:27:45;9.80;99.90
17442;DHT22;8838;50.144;8.176;2023-05-16T06:30:12;9.80;99.90
17442;DHT22;8838;50.144;8.176;2023-05-16T06:32:40;9.80;99.90
17442;DHT22;8838;50.144;8.176;2023-05-16T06:35:07;9.80;99.90
17442;DHT22;8838;50.144;8.176;2023-05-16T06:37:34;9.80;99.90
17442;DHT22;8838;50.144;8.176;2023-05-16T06:40:01;9.80;99.90
17442;DHT22;8838;50.144;8.176;2023-05-16T06:42:29;9.90;99.90
17442;DHT22;8838;50.144;8.176;2023-05-16T06:44:55;9.90;99.90
17442;DHT22;8838;50.144;8.176;2023-05-16T06:47:22;9.90;99.90
17442;DHT22;8838;50.144;8.176;2023-05-16T06:49:51;10.00;99.90
17442;DHT22;8838;50.144;8.176;2023-05-16T06:52:17;9.90;99.90
17442;DHT22;8838;50.144;8.176;2023-05-16T06:54:44;9.90;99.90
17442;DHT22;8838;50.144;8.176;2023-05-16T06:57:11;10.00;99.90
17442;DHT22;8838;50.144;8.176;2023-05-16T06:59:38;10.00;99.90
17442;DHT22;8838;50.144;8.176;2023-05-16T07:02:06;10.00;99.90
17442;DHT22;8838;50.144;8.176;2023-05-16T07:04:33;10.10;99.90
17442;DHT22;8838;50.144;8.176;2023-05-16T07:07:04;10.10;99.90
17442;DHT22;8838;50.144;8.176;2023-05-16T07:09:32;10.10;99.90
17442;DHT22;8838;50.144;8.176;2023-05-16T07:11:59;10.10;99.90
17442;DHT22;8838;50.144;8.176;2023-05-16T07:14:25;10.10;99.90
17442;DHT22;8838;50.144;8.176;2023-05-16T07:16:52;10.10;99.90
17442;DHT22;8838;50.144;8.176;2023-05-16T07:19:19;10.10;99.90
17442;DHT22;8838;50.144;8.176;2023-05-16T07:21:46;10.00;99.90
17442;DHT22;8838;50.144;8.176;2023-05-16T07:24:14;10.00;99.90
17442;DHT22;8838;50.144;8.176;2023-05-16T07:26:41;10.00;99.90
17442;DHT22;8838;50.144;8.176;2023-05-16T07:29:08;9.80;99.90
17442;DHT22;8838;50.144;8.176;2023-05-16T07:31:35;9.70;99.90
17442;DHT22;8838;50.144;8.176;2023-05-16T07:34:02;9.60;99.90
17442;DHT22;8838;50.144;8.176;2023-05-16T07:36:28;9.50;99.90
17442;DHT22;8838;50.144;8.176;2023-05-16T07:38:55;9.40;99.90
17442;DHT22;8838;50.144;8.176;2023-05-16T07:41:24;9.40;99.90
17442;DHT22;8838;50.144;8.176;2023-05-16T07:43:51;9.50;99.90
17442;DHT22;8838;50.144;8.176;2023-05-16T07:46:18;9.40;99.90
17442;DHT22;8838;50.144;8.176;2023-05-16T07:48:45;9.40;99.90
17442;DHT22;8838;50.144;8.176;2023-05-16T07:51:12;9.30;99.90
17442;DHT22;8838;50.144;8.176;2023-05-16T07:53:39;9.30;99.90
17442;DHT22;8838;50.144;8.176;2023-05-16T07:56:06;9.20;99.90
17442;DHT22;8838;50.144;8.176;2023-05-16T07:58:37;9.20;99.90
17442;DHT22;8838;50.144;8.176;2023-05-16T08:01:05;9.20;99.90
17442;DHT22;8838;50.144;8.176;2023-05-16T08:03:31;9.20;99.90
17442;DHT22;8838;50.144;8.176;2023-05-16T08:05:58;9.20;99.90
17442;DHT22;8838;50.144;8.176;2023-05-16T08:08:25;9.20;99.90
17442;DHT22;8838;50.144;8.176;2023-05-16T08:10:52;9.20;99.90
17442;DHT22;8838;50.144;8.176;2023-05-16T08:13:19;9.20;99.90
17442;DHT22;8838;50.144;8.176;2023-05-16T08:15:47;9.20;99.90
17442;DHT22;8838;50.144;8.176;2023-05-16T08:18:14;9.20;99.90
17442;DHT22;8838;50.144;8.176;2023-05-16T08:20:41;9.20;99.90
17442;DHT22;8838;50.144;8.176;2023-05-16T08:23:08;9.20;99.90
17442;DHT22;8838;50.144;8.176;2023-05-16T08:25:35;9.20;99.90
17442;DHT22;8838;50.144;8.176;2023-05-16T08:28:02;9.20;99.90
17442;DHT22;8838;50.144;8.176;2023-05-16T08:30:29;9.20;99.90
17442;DHT22;8838;50.144;8.176;2023-05-16T08:32:58;9.10;99.90
17442;DHT22;8838;50.144;8.176;2023-05-16T08:35:29;9.20;99.90
17442;DHT22;8838;50.144;8.176;2023-05-16T08:37:56;9.20;99.90
17442;DHT22;8838;50.144;8.176;2023-05-16T08:40:25;9.30;99.90
17442;DHT22;8838;50.144;8.176;2023-05-16T08:42:52;9.30;99.90
17442;DHT22;8838;50.144;8.176;2023-05-16T08:45:19;9.40;99.90
17442;DHT22;8838;50.144;8.176;2023-05-16T08:47:49;9.40;99.90
17442;DHT22;8838;50.144;8.176;2023-05-16T08:50:17;9.50;99.90
17442;DHT22;8838;50.144;8.176;2023-05-16T08:52:46;9.30;99.90
17442;DHT22;8838;50.144;8.176;2023-05-16T08:55:18;9.40;99.90
17442;DHT22;8838;50.144;8.176;2023-05-16T08:57:47;9.40;99.90
17442;DHT22;8838;50.144;8.176;2023-05-16T09:00:15;9.50;99.90
17442;DHT22;8838;50.144;8.176;2023-05-16T09:02:42;9.50;99.90
17442;DHT22;8838;50.144;8.176;2023-05-16T09:05:11;9.50;99.90
17442;DHT22;8838;50.144;8.176;2023-05-16T09:07:43;9.60;99.90
17442;DHT22;8838;50.144;8.176;2023-05-16T09:10:10;9.60;99.90
17442;DHT22;8838;50.144;8.176;2023-05-16T09:12:38;9.60;99.90
17442;DHT22;8838;50.144;8.176;2023-05-16T09:15:07;9.60;99.90
17442;DHT22;8838;50.144;8.176;2023-05-16T09:17:35;9.60;99.90
17442;DHT22;8838;50.144;8.176;2023-05-16T09:20:10;9.80;99.90
17442;DHT22;8838;50.144;8.176;2023-05-16T09:22:48;9.90;99.90
17442;DHT22;8838;50.144;8.176;2023-05-16T09:25:16;9.80;99.90
17442;DHT22;8838;50.144;8.176;2023-05-16T09:27:45;9.80;99.90
17442;DHT22;8838;50.144;8.176;2023-05-16T09:30:13;10.00;99.90
17442;DHT22;8838;50.144;8.176;2023-05-16T09:32:42;10.10;99.90
17442;DHT22;8838;50.144;8.176;2023-05-16T09:35:14;10.30;99.90
17442;DHT22;8838;50.144;8.176;2023-05-16T09:37:44;10.40;99.90
17442;DHT22;8838;50.144;8.176;2023-05-16T09:40:12;10.40;99.90
17442;DHT22;8838;50.144;8.176;2023-05-16T09:42:40;10.40;99.90
17442;DHT22;8838;50.144;8.176;2023-05-16T09:45:11;10.40;99.90
17442;DHT22;8838;50.144;8.176;2023-05-16T09:47:39;10.40;99.90
17442;DHT22;8838;50.144;8.176;2023-05-16T09:50:12;10.50;99.90
17442;DHT22;8838;50.144;8.176;2023-05-16T09:52:39;10.50;99.90
17442;DHT22;8838;50.144;8.176;2023-05-16T09:55:08;10.40;99.90
17442;DHT22;8838;50.144;8.176;2023-05-16T09:57:36;10.50;99.90
17442;DHT22;8838;50.144;8.176;2023-05-16T10:00:05;10.50;99.90
17442;DHT22;8838;50.144;8.176;2023-05-16T10:02:35;10.40;99.90
17442;DHT22;8838;50.144;8.176;2023-05-16T10:05:03;10.40;99.90
17442;DHT22;8838;50.144;8.176;2023-05-16T10:07:30;10.40;99.90
17442;DHT22;8838;50.144;8.176;2023-05-16T10:09:59;10.40;99.90
17442;DHT22;8838;50.144;8.176;2023-05-16T10:12:29;10.50;99.90
17442;DHT22;8838;50.144;8.176;2023-05-16T10:14:57;10.70;99.90
17442;DHT22;8838;50.144;8.176;2023-05-16T10:17:26;10.80;99.90
17442;DHT22;8838;50.144;8.176;2023-05-16T10:19:57;10.80;99.90
17442;DHT22;8838;50.144;8.176;2023-05-16T10:22:26;10.80;99.90
17442;DHT22;8838;50.144;8.176;2023-05-16T10:25:07;10.80;99.90
17442;DHT22;8838;50.144;8.176;2023-05-16T10:27:37;10.80;99.90
17442;DHT22;8838;50.144;8.176;2023-05-16T10:30:06;10.80;99.90
17442;DHT22;8838;50.144;8.176;2023-05-16T10:32:34;11.00;99.90
17442;DHT22;8838;50.144;8.176;2023-05-16T10:35:02;11.10;99.90
17442;DHT22;8838;50.144;8.176;2023-05-16T10:37:30;11.30;99.90
17442;DHT22;8838;50.144;8.176;2023-05-16T10:39:58;11.40;99.90
17442;DHT22;8838;50.144;8.176;2023-05-16T10:42:26;11.50;99.90
17442;DHT22;8838;50.144;8.176;2023-05-16T10:44:55;11.70;99.90
17442;DHT22;8838;50.144;8.176;2023-05-16T10:47:34;11.90;99.90
17442;DHT22;8838;50.144;8.176;2023-05-16T10:50:01;12.10;99.90
17442;DHT22;8838;50.144;8.176;2023-05-16T10:52:32;12.10;99.90
17442;DHT22;8838;50.144;8.176;2023-05-16T10:55:02;12.20;99.90
17442;DHT22;8838;50.144;8.176;2023-05-16T10:57:32;12.20;99.90
17442;DHT22;8838;50.144;8.176;2023-05-16T11:00:07;12.20;99.90
17442;DHT22;8838;50.144;8.176;2023-05-16T11:02:40;12.50;99.90
17442;DHT22;8838;50.144;8.176;2023-05-16T11:05:12;12.90;99.90
17442;DHT22;8838;50.144;8.176;2023-05-16T11:07:43;13.50;99.90
17442;DHT22;8838;50.144;8.176;2023-05-16T11:10:15;14.60;99.90
17442;DHT22;8838;50.144;8.176;2023-05-16T11:12:43;15.50;99.90
17442;DHT22;8838;50.144;8.176;2023-05-16T11:15:23;16.00;99.90
17442;DHT22;8838;50.144;8.176;2023-05-16T11:17:50;16.40;99.90
17442;DHT22;8838;50.144;8.176;2023-05-16T11:20:28;16.60;99.90
17442;DHT22;8838;50.144;8.176;2023-05-16T11:23:23;16.40;99.90
17442;DHT22;8838;50.144;8.176;2023-05-16T11:25:53;16.90;99.90
17442;DHT22;8838;50.144;8.176;2023-05-16T11:28:21;17.70;99.90
17442;DHT22;8838;50.144;8.176;2023-05-16T11:30:52;18.10;99.90
17442;DHT22;8838;50.144;8.176;2023-05-16T11:33:21;18.50;99.90
17442;DHT22;8838;50.144;8.176;2023-05-16T11:36:02;18.60;99.90
17442;DHT22;8838;50.144;8.176;2023-05-16T11:38:29;17.90;99.90
17442;DHT22;8838;50.144;8.176;2023-05-16T11:41:01;17.00;99.90
17442;DHT22;8838;50.144;8.176;2023-05-16T11:43:29;16.40;99.90
17442;DHT22;8838;50.144;8.176;2023-05-16T11:46:03;16.00;99.90
17442;DHT22;8838;50.144;8.176;2023-05-16T11:48:30;16.40;99.90
17442;DHT22;8838;50.144;8.176;2023-05-16T11:50:57;16.80;99.90
17442;DHT22;8838;50.144;8.176;2023-05-16T11:53:24;16.80;99.90
17442;DHT22;8838;50.144;8.176;2023-05-16T11:55:52;16.50;99.90
17442;DHT22;8838;50.144;8.176;2023-05-16T11:58:21;16.40;99.90
17442;DHT22;8838;50.144;8.176;2023-05-16T12:00:49;16.40;99.90
17442;DHT22;8838;50.144;8.176;2023-05-16T12:03:18;16.60;99.90
17442;DHT22;8838;50.144;8.176;2023-05-16T12:05:52;16.40;99.90
17442;DHT22;8838;50.144;8.176;2023-05-16T12:08:20;16.10;99.90
17442;DHT22;8838;50.144;8.176;2023-05-16T12:10:51;16.00;99.90
17442;DHT22;8838;50.144;8.176;2023-05-16T12:13:19;16.10;99.90
17442;DHT22;8838;50.144;8.176;2023-05-16T12:15:46;16.00;99.90
17442;DHT22;8838;50.144;8.176;2023-05-16T12:18:14;15.90;99.90
17442;DHT22;8838;50.144;8.176;2023-05-16T12:20:43;15.70;99.90
17442;DHT22;8838;50.144;8.176;2023-05-16T12:23:11;15.40;99.90
17442;DHT22;8838;50.144;8.176;2023-05-16T12:25:39;15.00;99.90
17442;DHT22;8838;50.144;8.176;2023-05-16T12:28:08;15.20;99.90
17442;DHT22;8838;50.144;8.176;2023-05-16T12:30:39;15.70;99.90
17442;DHT22;8838;50.144;8.176;2023-05-16T12:33:08;16.00;99.90
17442;DHT22;8838;50.144;8.176;2023-05-16T12:35:37;16.00;99.90
17442;DHT22;8838;50.144;8.176;2023-05-16T12:38:07;16.20;99.90
17442;DHT22;8838;50.144;8.176;2023-05-16T12:40:35;16.40;99.90
17442;DHT22;8838;50.144;8.176;2023-05-16T12:43:03;16.60;99.90
17442;DHT22;8838;50.144;8.176;2023-05-16T12:45:32;16.70;99.90
17442;DHT22;8838;50.144;8.176;2023-05-16T12:48:03;16.80;99.90
17442;DHT22;8838;50.144;8.176;2023-05-16T12:50:32;17.00;99.90
17442;DHT22;8838;50.144;8.176;2023-05-16T12:53:02;17.10;99.90
17442;DHT22;8838;50.144;8.176;2023-05-16T12:55:30;17.10;99.90
17442;DHT22;8838;50.144;8.176;2023-05-16T12:57:57;17.20;99.90
17442;DHT22;8838;50.144;8.176;2023-05-16T13:00:26;17.10;99.90
17442;DHT22;8838;50.144;8.176;2023-05-16T13:02:53;16.40;99.90
17442;DHT22;8838;50.144;8.176;2023-05-16T13:05:20;16.40;99.90
17442;DHT22;8838;50.144;8.176;2023-05-16T13:07:47;16.20;99.90
17442;DHT22;8838;50.144;8.176;2023-05-16T13:10:16;16.40;99.90
17442;DHT22;8838;50.144;8.176;2023-05-16T13:12:45;16.70;99.90
17442;DHT22;8838;50.144;8.176;2023-05-16T13:15:12;16.90;99.90
17442;DHT22;8838;50.144;8.176;2023-05-16T13:17:40;16.90;99.90
17442;DHT22;8838;50.144;8.176;2023-05-16T13:20:09;17.00;99.90
17442;DHT22;8838;50.144;8.176;2023-05-16T13:22:38;16.90;99.90
17442;DHT22;8838;50.144;8.176;2023-05-16T13:25:05;16.40;99.90
17442;DHT22;8838;50.144;8.176;2023-05-16T13:27:33;16.20;99.90
17442;DHT22;8838;50.144;8.176;2023-05-16T13:30:02;16.00;99.90
17442;DHT22;8838;50.144;8.176;2023-05-16T13:32:29;15.80;99.90
17442;DHT22;8838;50.144;8.176;2023-05-16T13:34:56;16.10;99.90
17442;DHT22;8838;50.144;8.176;2023-05-16T13:37:22;16.70;99.90
17442;DHT22;8838;50.144;8.176;2023-05-16T13:39:50;16.60;99.90
17442;DHT22;8838;50.144;8.176;2023-05-16T13:42:17;16.40;99.90
17442;DHT22;8838;50.144;8.176;2023-05-16T13:44:43;16.10;99.90
17442;DHT22;8838;50.144;8.176;2023-05-16T13:47:12;15.60;99.90
17442;DHT22;8838;50.144;8.176;2023-05-16T13:49:38;15.30;99.90
17442;DHT22;8838;50.144;8.176;2023-05-16T13:52:06;15.50;99.90
17442;DHT22;8838;50.144;8.176;2023-05-16T13:54:33;15.70;99.90
17442;DHT22;8838;50.144;8.176;2023-05-16T13:57:00;16.20;99.90
17442;DHT22;8838;50.144;8.176;2023-05-16T13:59:27;16.40;99.90
17442;DHT22;8838;50.144;8.176;2023-05-16T14:01:54;16.30;99.90
17442;DHT22;8838;50.144;8.176;2023-05-16T14:04:23;16.30;99.90
17442;DHT22;8838;50.144;8.176;2023-05-16T14:06:50;16.50;99.90
17442;DHT22;8838;50.144;8.176;2023-05-16T14:09:17;16.40;99.90
17442;DHT22;8838;50.144;8.176;2023-05-16T14:11:44;16.30;99.90
17442;DHT22;8838;50.144;8.176;2023-05-16T14:14:11;16.30;99.90
17442;DHT22;8838;50.144;8.176;2023-05-16T14:16:37;16.20;99.90
17442;DHT22;8838;50.144;8.176;2023-05-16T14:19:09;15.90;99.90
17442;DHT22;8838;50.144;8.176;2023-05-16T14:21:37;15.50;99.90
17442;DHT22;8838;50.144;8.176;2023-05-16T14:24:05;15.20;99.90
17442;DHT22;8838;50.144;8.176;2023-05-16T14:26:32;15.10;99.90
17442;DHT22;8838;50.144;8.176;2023-05-16T14:28:59;15.50;99.90
17442;DHT22;8838;50.144;8.176;2023-05-16T14:31:26;16.00;99.90
17442;DHT22;8838;50.144;8.176;2023-05-16T14:33:53;16.40;99.90
17442;DHT22;8838;50.144;8.176;2023-05-16T14:36:19;16.80;99.90
17442;DHT22;8838;50.144;8.176;2023-05-16T14:38:47;16.70;99.90
17442;DHT22;8838;50.144;8.176;2023-05-16T14:41:14;16.30;99.90
17442;DHT22;8838;50.144;8.176;2023-05-16T14:43:41;16.20;99.90
17442;DHT22;8838;50.144;8.176;2023-05-16T14:46:08;15.90;99.90
17442;DHT22;8838;50.144;8.176;2023-05-16T14:48:35;16.10;99.90
17442;DHT22;8838;50.144;8.176;2023-05-16T14:51:02;16.30;99.90
17442;DHT22;8838;50.144;8.176;2023-05-16T14:53:29;16.50;99.90
17442;DHT22;8838;50.144;8.176;2023-05-16T14:55:57;16.90;99.90
17442;DHT22;8838;50.144;8.176;2023-05-16T14:58:24;16.70;99.90
17442;DHT22;8838;50.144;8.176;2023-05-16T15:00:51;16.80;99.90
17442;DHT22;8838;50.144;8.176;2023-05-16T15:03:18;16.80;99.90
17442;DHT22;8838;50.144;8.176;2023-05-16T15:05:45;17.10;99.90
17442;DHT22;8838;50.144;8.176;2023-05-16T15:08:12;17.30;99.90
17442;DHT22;8838;50.144;8.176;2023-05-16T15:10:38;17.40;99.90
17442;DHT22;8838;50.144;8.176;2023-05-16T15:13:06;17.40;99.90
17442;DHT22;8838;50.144;8.176;2023-05-16T15:15:33;17.40;99.90
17442;DHT22;8838;50.144;8.176;2023-05-16T15:18:03;17.40;99.90
17442;DHT22;8838;50.144;8.176;2023-05-16T15:20:30;17.50;99.90
17442;DHT22;8838;50.144;8.176;2023-05-16T15:22:57;17.30;99.90
17442;DHT22;8838;50.144;8.176;2023-05-16T15:25:24;17.00;99.90
17442;DHT22;8838;50.144;8.176;2023-05-16T15:27:51;16.90;99.90
17442;DHT22;8838;50.144;8.176;2023-05-16T15:30:19;17.00;99.90
17442;DHT22;8838;50.144;8.176;2023-05-16T15:32:46;16.90;99.90
17442;DHT22;8838;50.144;8.176;2023-05-16T15:35:13;16.80;99.90
17442;DHT22;8838;50.144;8.176;2023-05-16T15:37:40;16.50;99.90
17442;DHT22;8838;50.144;8.176;2023-05-16T15:40:09;16.10;99.90
17442;DHT22;8838;50.144;8.176;2023-05-16T15:42:36;16.00;99.90
17442;DHT22;8838;50.144;8.176;2023-05-16T15:45:03;15.90;99.90
17442;DHT22;8838;50.144;8.176;2023-05-16T15:47:32;15.80;99.90
17442;DHT22;8838;50.144;8.176;2023-05-16T15:49:58;16.20;99.90
17442;DHT22;8838;50.144;8.176;2023-05-16T15:52:25;16.10;99.90
17442;DHT22;8838;50.144;8.176;2023-05-16T15:54:52;15.90;99.90